createdAt,value
2022-09-09T00:00:26.410Z,88.15
2022-09-09T00:01:26.399Z,87.84
2022-09-09T00:02:26.533Z,88.04
2022-09-09T00:03:26.475Z,87.68
2022-09-09T00:04:26.351Z,87.79
2022-09-09T00:05:26.331Z,87.79
2022-09-09T00:06:26.321Z,87.68
2022-09-09T00:07:26.321Z,87.88
2022-09-09T00:08:26.300Z,87.99
2022-09-09T00:09:26.283Z,87.88
2022-09-09T00:10:26.269Z,87.99
2022-09-09T00:11:31.189Z,87.99
2022-09-09T00:12:27.272Z,88.29
2022-09-09T00:13:26.222Z,88.19
2022-09-09T00:14:26.219Z,87.99
2022-09-09T00:15:26.211Z,87.79
2022-09-09T00:16:26.281Z,87.79
2022-09-09T00:17:26.264Z,87.99
2022-09-09T00:18:26.234Z,87.88
2022-09-09T00:19:26.154Z,87.82
2022-09-09T00:20:26.189Z,88.13
2022-09-09T00:21:26.132Z,88.02
2022-09-09T00:22:26.141Z,88.02
2022-09-09T00:23:26.122Z,88.13
2022-09-09T00:24:26.094Z,88.02
2022-09-09T00:25:26.084Z,88.02
2022-09-09T00:26:26.075Z,88.13
2022-09-09T00:27:26.072Z,88.43
2022-09-09T00:28:26.062Z,88.33
2022-09-09T00:29:26.021Z,88.13
2022-09-09T00:30:26.028Z,88.23
2022-09-09T00:31:26.053Z,87.93
2022-09-09T00:32:26.004Z,88.13
2022-09-09T00:33:26.014Z,88.02
2022-09-09T00:34:25.974Z,87.93
2022-09-09T00:35:25.943Z,87.93
2022-09-09T00:36:25.943Z,87.62
2022-09-09T00:37:25.924Z,87.32
2022-09-09T00:38:25.965Z,87.62
2022-09-09T00:39:25.901Z,87.97
2022-09-09T00:40:25.893Z,88.13
2022-09-09T00:41:25.863Z,87.87
2022-09-09T00:42:25.854Z,88.07
2022-09-09T00:43:25.855Z,87.97
2022-09-09T00:44:25.825Z,88.13
2022-09-09T00:45:25.815Z,88.23
2022-09-09T00:46:25.945Z,88.43
2022-09-09T00:47:25.784Z,88.43
2022-09-09T00:48:25.794Z,88.13
2022-09-09T00:49:25.763Z,88.23
2022-09-09T00:50:25.756Z,88.13
2022-09-09T00:51:25.734Z,88.23
2022-09-09T00:52:25.731Z,88.53
2022-09-09T00:53:25.732Z,88.53
2022-09-09T00:54:25.686Z,88.29
2022-09-09T00:55:25.688Z,87.99
2022-09-09T00:56:25.687Z,87.93
2022-09-09T00:57:25.668Z,87.62
2022-09-09T00:58:25.655Z,87.58
2022-09-09T00:59:28.506Z,87.73
2022-09-09T01:00:25.645Z,87.52
2022-09-09T01:01:25.643Z,87.32
2022-09-09T01:02:25.636Z,87.42
2022-09-09T01:03:25.660Z,87.82
2022-09-09T01:04:25.567Z,88.02
2022-09-09T01:05:25.548Z,87.93
2022-09-09T01:06:25.574Z,87.73
2022-09-09T01:07:25.528Z,87.62
2022-09-09T01:08:25.547Z,87.66
2022-09-09T01:09:25.495Z,87.77
2022-09-09T01:10:25.486Z,87.56
2022-09-09T01:11:25.477Z,87.56
2022-09-09T01:12:25.460Z,87.66
2022-09-09T01:13:25.433Z,87.77
2022-09-09T01:14:25.426Z,87.87
2022-09-09T01:15:25.406Z,87.87
2022-09-09T01:16:25.466Z,87.87
2022-09-09T01:17:25.389Z,87.87
2022-09-09T01:18:25.395Z,87.77
2022-09-09T01:19:25.347Z,87.97
2022-09-09T01:20:25.345Z,88.17
2022-09-09T01:21:25.327Z,87.97
2022-09-09T01:22:25.326Z,87.77
2022-09-09T01:23:25.346Z,87.97
2022-09-09T01:24:25.296Z,87.97
2022-09-09T01:25:25.286Z,87.87
2022-09-09T01:26:25.274Z,87.97
2022-09-09T01:27:25.247Z,88.37
2022-09-09T01:28:25.248Z,88.68
2022-09-09T01:29:25.251Z,88.78
2022-09-09T01:30:25.253Z,88.68
2022-09-09T01:31:25.187Z,88.68
2022-09-09T01:32:25.186Z,88.57
2022-09-09T01:33:25.178Z,88.57
2022-09-09T01:34:25.189Z,88.68
2022-09-09T01:35:25.147Z,88.68
2022-09-09T01:36:25.138Z,88.78
2022-09-09T01:37:25.122Z,88.68
2022-09-09T01:38:25.098Z,88.27
2022-09-09T01:39:25.108Z,88.27
2022-09-09T01:40:25.106Z,88.37
2022-09-09T01:41:25.069Z,88.57
2022-09-09T01:42:25.058Z,88.88
2022-09-09T01:43:25.039Z,88.98
2022-09-09T01:44:25.038Z,89.18
2022-09-09T01:45:25.044Z,89.18
2022-09-09T01:46:25.077Z,89.14
2022-09-09T01:47:24.979Z,89.04
2022-09-09T01:48:24.972Z,88.64
2022-09-09T01:49:24.979Z,88.23
2022-09-09T01:50:24.961Z,88.23
2022-09-09T01:51:24.937Z,88.13
2022-09-09T01:52:24.918Z,87.93
2022-09-09T01:53:24.893Z,88.13
2022-09-09T01:54:24.939Z,88.13
2022-09-09T01:55:24.890Z,87.93
2022-09-09T01:56:24.879Z,87.73
2022-09-09T01:57:24.848Z,87.93
2022-09-09T01:58:24.840Z,88.13
2022-09-09T01:59:24.830Z,88.13
2022-09-09T02:00:24.810Z,87.88
2022-09-09T02:01:24.826Z,87.79
2022-09-09T02:02:24.844Z,88.09
2022-09-09T02:03:24.792Z,88.09
2022-09-09T02:04:24.760Z,88.09
2022-09-09T02:05:24.762Z,87.99
2022-09-09T02:06:24.740Z,87.58
2022-09-09T02:07:24.720Z,87.38
2022-09-09T02:08:24.721Z,87.18
2022-09-09T02:09:24.699Z,87.58
2022-09-09T02:10:24.680Z,87.48
2022-09-09T02:11:24.661Z,87.28
2022-09-09T02:12:24.656Z,87.18
2022-09-09T02:13:24.663Z,87.18
2022-09-09T02:14:24.623Z,87.28
2022-09-09T02:15:24.619Z,87.38
2022-09-09T02:16:24.646Z,87.48
2022-09-09T02:17:24.612Z,87.18
2022-09-09T02:18:24.605Z,87.18
2022-09-09T02:19:24.560Z,87.48
2022-09-09T02:20:24.553Z,87.68
2022-09-09T02:21:24.532Z,87.58
2022-09-09T02:22:24.528Z,87.18
2022-09-09T02:23:24.533Z,87.18
2022-09-09T02:24:24.553Z,87.38
2022-09-09T02:25:24.481Z,87.58
2022-09-09T02:26:24.532Z,87.48
2022-09-09T02:27:24.441Z,87.48
2022-09-09T02:28:24.442Z,87.58
2022-09-09T02:29:24.441Z,87.58
2022-09-09T02:30:24.489Z,87.58
2022-09-09T02:31:24.404Z,87.68
2022-09-09T02:32:24.413Z,87.48
2022-09-09T02:33:24.371Z,87.18
2022-09-09T02:34:24.382Z,87.28
2022-09-09T02:35:24.343Z,87.58
2022-09-09T02:36:24.332Z,87.88
2022-09-09T02:37:24.325Z,87.88
2022-09-09T02:38:24.313Z,87.58
2022-09-09T02:39:24.304Z,87.79
2022-09-09T02:40:24.283Z,87.68
2022-09-09T02:41:24.284Z,87.34
2022-09-09T02:42:24.261Z,86.63
2022-09-09T02:43:24.265Z,86.27
2022-09-09T02:44:24.252Z,86.53
2022-09-09T02:45:24.245Z,86.93
2022-09-09T02:46:24.215Z,87.24
2022-09-09T02:47:24.204Z,87.38
2022-09-09T02:48:24.204Z,87.48
2022-09-09T02:49:24.165Z,87.68
2022-09-09T02:50:24.147Z,87.68
2022-09-09T02:51:24.132Z,87.99
2022-09-09T02:52:24.133Z,87.68
2022-09-09T02:53:24.116Z,87.58
2022-09-09T02:54:24.145Z,87.88
2022-09-09T02:55:24.067Z,87.88
2022-09-09T02:56:24.075Z,87.99
2022-09-09T02:57:24.074Z,87.99
2022-09-09T02:58:24.046Z,87.99
2022-09-09T02:59:24.057Z,88.09
2022-09-09T03:00:24.034Z,88.49
2022-09-09T03:01:24.049Z,88.29
2022-09-09T03:02:24.045Z,88.19
2022-09-09T03:03:23.985Z,88.29
2022-09-09T03:04:23.985Z,88.29
2022-09-09T03:05:23.958Z,87.99
2022-09-09T03:06:23.946Z,88.09
2022-09-09T03:07:23.927Z,88.09
2022-09-09T03:08:23.916Z,87.79
2022-09-09T03:09:23.923Z,87.88
2022-09-09T03:10:23.888Z,87.88
2022-09-09T03:11:23.877Z,87.88
2022-09-09T03:12:23.860Z,87.64
2022-09-09T03:13:23.847Z,87.34
2022-09-09T03:14:23.856Z,87.13
2022-09-09T03:15:23.807Z,87.24
2022-09-09T03:16:23.906Z,87.13
2022-09-09T03:17:23.816Z,87.24
2022-09-09T03:18:23.791Z,87.13
2022-09-09T03:19:23.807Z,87.34
2022-09-09T03:20:23.757Z,87.34
2022-09-09T03:21:23.748Z,87.28
2022-09-09T03:22:23.729Z,87.28
2022-09-09T03:23:23.708Z,87.48
2022-09-09T03:24:23.734Z,87.68
2022-09-09T03:25:23.683Z,87.38
2022-09-09T03:26:23.670Z,87.38
2022-09-09T03:27:23.663Z,87.28
2022-09-09T03:28:23.650Z,87.38
2022-09-09T03:29:23.659Z,87.38
2022-09-09T03:30:23.612Z,87.48
2022-09-09T03:31:23.677Z,87.68
2022-09-09T03:32:23.604Z,87.88
2022-09-09T03:33:23.586Z,87.99
2022-09-09T03:34:23.628Z,88.19
2022-09-09T03:35:23.560Z,88.19
2022-09-09T03:36:23.530Z,88.13
2022-09-09T03:37:23.519Z,88.02
2022-09-09T03:38:23.510Z,88.02
2022-09-09T03:39:23.509Z,88.13
2022-09-09T03:40:23.538Z,87.93
2022-09-09T03:41:23.471Z,87.93
2022-09-09T03:42:23.471Z,88.23
2022-09-09T03:43:23.449Z,88.43
2022-09-09T03:44:23.496Z,88.43
2022-09-09T03:45:23.501Z,88.19
2022-09-09T03:46:23.410Z,88.02
2022-09-09T03:47:23.391Z,88.23
2022-09-09T03:48:23.381Z,88.39
2022-09-09T03:49:23.361Z,88.19
2022-09-09T03:50:23.388Z,87.99
2022-09-09T03:51:23.349Z,88.09
2022-09-09T03:52:23.955Z,87.99
2022-09-09T03:53:23.314Z,88.09
2022-09-09T03:54:23.283Z,88.19
2022-09-09T03:55:23.327Z,87.99
2022-09-09T03:56:23.273Z,87.68
2022-09-09T03:57:23.264Z,87.58
2022-09-09T03:58:23.254Z,87.68
2022-09-09T03:59:23.252Z,87.58
2022-09-09T04:00:23.272Z,87.79
2022-09-09T04:01:23.300Z,87.99
2022-09-09T04:02:23.225Z,88.09
2022-09-09T04:03:27.649Z,87.99
2022-09-09T04:04:24.163Z,87.68
2022-09-09T04:05:23.229Z,87.68
2022-09-09T04:06:23.135Z,87.48
2022-09-09T04:07:23.133Z,87.38
2022-09-09T04:08:23.113Z,87.28
2022-09-09T04:09:23.102Z,87.28
2022-09-09T04:10:23.093Z,87.38
2022-09-09T04:11:23.079Z,87.38
2022-09-09T04:12:23.051Z,87.48
2022-09-09T04:13:23.043Z,87.88
2022-09-09T04:14:23.033Z,87.79
2022-09-09T04:15:23.043Z,87.58
2022-09-09T04:16:23.043Z,87.79
2022-09-09T04:17:23.001Z,87.58
2022-09-09T04:18:22.973Z,87.58
2022-09-09T04:19:22.986Z,87.38
2022-09-09T04:20:23.001Z,87.12
2022-09-09T04:21:22.943Z,87.42
2022-09-09T04:22:22.914Z,87.58
2022-09-09T04:23:22.915Z,87.18
2022-09-09T04:24:22.904Z,86.83
2022-09-09T04:25:22.912Z,86.22
2022-09-09T04:26:22.890Z,85.38
2022-09-09T04:27:22.873Z,84.43
2022-09-09T04:28:22.846Z,83.82
2022-09-09T04:29:22.835Z,83.58
2022-09-09T04:30:22.872Z,83.18
2022-09-09T04:31:22.860Z,82.98
2022-09-09T04:32:22.782Z,82.91
2022-09-09T04:33:22.784Z,83.32
2022-09-09T04:34:22.763Z,83.32
2022-09-09T04:35:22.765Z,83.72
2022-09-09T04:36:22.763Z,83.48
2022-09-09T04:37:22.733Z,82.78
2022-09-09T04:38:22.745Z,82.67
2022-09-09T04:39:22.706Z,82.71
2022-09-09T04:40:22.702Z,83.01
2022-09-09T04:41:22.676Z,83.66
2022-09-09T04:42:22.665Z,83.86
2022-09-09T04:43:22.655Z,84.11
2022-09-09T04:44:22.626Z,84.81
2022-09-09T04:45:22.691Z,85.02
2022-09-09T04:46:22.608Z,84.81
2022-09-09T04:47:22.595Z,84.91
2022-09-09T04:48:22.580Z,84.71
2022-09-09T04:49:22.570Z,85.11
2022-09-09T04:50:22.578Z,85.42
2022-09-09T04:51:22.547Z,84.77
2022-09-09T04:52:22.517Z,84.47
2022-09-09T04:53:22.518Z,84.47
2022-09-09T04:54:22.578Z,84.61
2022-09-09T04:55:22.506Z,84.81
2022-09-09T04:56:22.482Z,85.22
2022-09-09T04:57:22.468Z,85.56
2022-09-09T04:58:22.686Z,85.76
2022-09-09T04:59:22.458Z,86.37
2022-09-09T05:00:22.431Z,85.93
2022-09-09T05:01:22.480Z,85.72
2022-09-09T05:02:22.924Z,85.62
2022-09-09T05:03:22.659Z,85.52
2022-09-09T05:04:22.367Z,85.52
2022-09-09T05:05:22.387Z,85.38
2022-09-09T05:06:22.340Z,85.08
2022-09-09T05:07:22.337Z,84.67
2022-09-09T05:08:22.299Z,84.37
2022-09-09T05:09:22.300Z,84.51
2022-09-09T05:10:22.319Z,84.91
2022-09-09T05:11:22.289Z,85.42
2022-09-09T05:12:22.272Z,85.72
2022-09-09T05:13:22.275Z,85.52
2022-09-09T05:14:22.239Z,85.48
2022-09-09T05:15:22.248Z,84.67
2022-09-09T05:16:22.361Z,84.57
2022-09-09T05:17:22.188Z,84.37
2022-09-09T05:18:22.189Z,83.76
2022-09-09T05:19:22.168Z,83.86
2022-09-09T05:20:22.171Z,84.06
2022-09-09T05:21:22.148Z,84.27
2022-09-09T05:22:22.129Z,84.81
2022-09-09T05:23:22.110Z,85.42
2022-09-09T05:24:22.079Z,85.52
2022-09-09T05:25:22.109Z,85.76
2022-09-09T05:26:22.071Z,86.07
2022-09-09T05:27:22.099Z,86.27
2022-09-09T05:28:22.380Z,86.47
2022-09-09T05:29:22.049Z,86.77
2022-09-09T05:30:22.041Z,86.87
2022-09-09T05:31:22.049Z,86.98
2022-09-09T05:32:22.376Z,87.28
2022-09-09T05:33:21.990Z,87.28
2022-09-09T05:34:21.979Z,87.38
2022-09-09T05:35:21.981Z,87.58
2022-09-09T05:36:21.942Z,87.58
2022-09-09T05:37:21.937Z,87.68
2022-09-09T05:38:24.786Z,87.38
2022-09-09T05:39:22.910Z,87.48
2022-09-09T05:40:21.958Z,87.48
2022-09-09T05:41:21.894Z,87.48
2022-09-09T05:42:21.862Z,87.68
2022-09-09T05:43:29.076Z,87.48
2022-09-09T05:44:21.839Z,87.68
2022-09-09T05:45:21.838Z,87.58
2022-09-09T05:46:21.864Z,87.48
2022-09-09T05:47:21.788Z,86.98
2022-09-09T05:48:21.777Z,86.67
2022-09-09T05:49:21.768Z,86.47
2022-09-09T05:50:21.789Z,86.13
2022-09-09T05:51:21.734Z,85.93
2022-09-09T05:52:21.707Z,85.93
2022-09-09T05:53:21.704Z,85.72
2022-09-09T05:54:21.706Z,85.72
2022-09-09T05:55:21.697Z,86.02
2022-09-09T05:56:21.658Z,86.22
2022-09-09T05:57:21.656Z,86.22
2022-09-09T05:58:21.638Z,85.93
2022-09-09T05:59:21.625Z,85.72
2022-09-09T06:00:21.628Z,85.31
2022-09-09T06:01:21.615Z,85.22
2022-09-09T06:02:21.803Z,85.42
2022-09-09T06:03:21.617Z,85.62
2022-09-09T06:04:21.547Z,85.52
2022-09-09T06:05:21.567Z,85.62
2022-09-09T06:06:21.532Z,85.82
2022-09-09T06:07:21.518Z,85.93
2022-09-09T06:08:21.498Z,86.02
2022-09-09T06:09:21.488Z,86.02
2022-09-09T06:10:21.468Z,86.13
2022-09-09T06:11:21.489Z,86.22
2022-09-09T06:12:21.457Z,86.43
2022-09-09T06:13:21.445Z,86.43
2022-09-09T06:14:21.419Z,86.53
2022-09-09T06:15:21.421Z,86.83
2022-09-09T06:16:21.493Z,86.87
2022-09-09T06:17:21.417Z,86.83
2022-09-09T06:18:21.377Z,87.04
2022-09-09T06:19:21.367Z,87.13
2022-09-09T06:20:21.340Z,87.34
2022-09-09T06:21:21.367Z,87.38
2022-09-09T06:22:21.328Z,87.68
2022-09-09T06:23:21.303Z,87.88
2022-09-09T06:24:21.289Z,88.04
2022-09-09T06:25:21.299Z,88.04
2022-09-09T06:26:21.299Z,87.95
2022-09-09T06:27:21.278Z,87.68
2022-09-09T06:28:21.258Z,87.54
2022-09-09T06:29:21.267Z,87.13
2022-09-09T06:30:21.228Z,86.93
2022-09-09T06:31:21.257Z,87.34
2022-09-09T06:32:21.238Z,87.54
2022-09-09T06:33:21.221Z,87.24
2022-09-09T06:34:21.166Z,86.73
2022-09-09T06:35:21.169Z,86.43
2022-09-09T06:36:21.166Z,86.22
2022-09-09T06:37:21.130Z,86.22
2022-09-09T06:38:21.118Z,86.63
2022-09-09T06:39:21.112Z,86.83
2022-09-09T06:40:21.090Z,87.10
2022-09-09T06:41:21.092Z,87.19
2022-09-09T06:42:21.049Z,87.10
2022-09-09T06:43:21.095Z,86.59
2022-09-09T06:44:21.070Z,86.08
2022-09-09T06:45:21.019Z,85.78
2022-09-09T06:46:21.143Z,85.74
2022-09-09T06:47:21.000Z,85.44
2022-09-09T06:48:20.980Z,85.14
2022-09-09T06:49:20.961Z,84.73
2022-09-09T06:50:20.959Z,84.73
2022-09-09T06:51:20.970Z,84.59
2022-09-09T06:52:20.928Z,84.59
2022-09-09T06:53:20.920Z,84.69
2022-09-09T06:54:20.901Z,84.69
2022-09-09T06:55:20.908Z,84.59
2022-09-09T06:56:20.888Z,84.35
2022-09-09T06:57:36.442Z,84.35
2022-09-09T06:58:21.841Z,83.95
2022-09-09T06:59:20.841Z,83.64
2022-09-09T07:00:20.830Z,83.44
2022-09-09T07:01:20.865Z,82.73
2022-09-09T07:02:20.830Z,82.43
2022-09-09T07:03:20.794Z,82.23
2022-09-09T07:04:20.770Z,82.03
2022-09-09T07:05:20.766Z,82.03
2022-09-09T07:06:20.760Z,81.82
2022-09-09T07:07:20.733Z,81.62
2022-09-09T07:08:20.720Z,81.68
2022-09-09T07:09:20.725Z,81.68
2022-09-09T07:10:20.682Z,81.73
2022-09-09T07:11:20.716Z,81.32
2022-09-09T07:12:20.672Z,81.12
2022-09-09T07:13:20.656Z,81.02
2022-09-09T07:14:20.634Z,81.22
2022-09-09T07:15:20.632Z,81.12
2022-09-09T07:16:20.710Z,81.22
2022-09-09T07:17:20.603Z,81.32
2022-09-09T07:18:20.585Z,81.02
2022-09-09T07:19:20.581Z,80.82
2022-09-09T07:20:20.562Z,81.02
2022-09-09T07:21:20.562Z,81.22
2022-09-09T07:22:20.524Z,81.12
2022-09-09T07:23:20.520Z,81.32
2022-09-09T07:24:20.506Z,81.42
2022-09-09T07:25:20.494Z,81.22
2022-09-09T07:26:20.494Z,81.32
2022-09-09T07:27:20.483Z,81.42
2022-09-09T07:28:20.457Z,81.32
2022-09-09T07:29:21.199Z,81.18
2022-09-09T07:30:24.299Z,81.08
2022-09-09T07:31:21.571Z,81.59
2022-09-09T07:32:20.419Z,80.98
2022-09-09T07:33:20.395Z,81.18
2022-09-09T07:34:20.388Z,80.88
2022-09-09T07:35:20.377Z,80.68
2022-09-09T07:36:20.346Z,80.38
2022-09-09T07:37:20.365Z,80.38
2022-09-09T07:38:20.337Z,80.78
2022-09-09T07:39:20.317Z,80.84
2022-09-09T07:40:20.338Z,80.94
2022-09-09T07:41:20.286Z,80.94
2022-09-09T07:42:20.297Z,81.15
2022-09-09T07:43:20.287Z,81.24
2022-09-09T07:44:20.247Z,80.94
2022-09-09T07:45:20.219Z,80.13
2022-09-09T07:46:20.305Z,79.93
2022-09-09T07:47:20.227Z,80.04
2022-09-09T07:48:20.195Z,80.13
2022-09-09T07:49:26.186Z,80.33
2022-09-09T07:50:21.236Z,80.54
2022-09-09T07:51:20.167Z,80.74
2022-09-09T07:52:20.750Z,80.64
2022-09-09T07:53:20.137Z,80.04
2022-09-09T07:54:20.117Z,80.04
2022-09-09T07:55:20.106Z,80.04
2022-09-09T07:56:20.087Z,79.83
2022-09-09T07:57:20.096Z,79.60
2022-09-09T07:58:20.066Z,79.49
2022-09-09T07:59:20.048Z,79.29
2022-09-09T08:00:20.111Z,79.49
2022-09-09T08:01:20.126Z,79.60
2022-09-09T08:02:20.027Z,79.39
2022-09-09T08:03:20.041Z,79.19
2022-09-09T08:04:19.998Z,78.99
2022-09-09T08:05:19.971Z,78.89
2022-09-09T08:06:19.969Z,78.59
2022-09-09T08:07:19.967Z,78.49
2022-09-09T08:08:19.940Z,78.39
2022-09-09T08:09:19.910Z,78.49
2022-09-09T08:10:19.947Z,78.69
2022-09-09T08:11:19.891Z,78.89
2022-09-09T08:12:19.894Z,78.49
2022-09-09T08:13:19.869Z,78.59
2022-09-09T08:14:19.859Z,77.98
2022-09-09T08:15:19.830Z,77.58
2022-09-09T08:16:19.867Z,77.88
2022-09-09T08:17:19.830Z,78.05
2022-09-09T08:18:19.800Z,77.24
2022-09-09T08:19:19.780Z,75.43
2022-09-09T08:20:19.778Z,75.73
2022-09-09T08:21:19.751Z,75.13
2022-09-09T08:22:19.771Z,75.02
2022-09-09T08:23:19.728Z,73.32
2022-09-09T08:24:19.725Z,72.41
2022-09-09T08:25:19.702Z,72.71
2022-09-09T08:26:19.699Z,73.32
2022-09-09T08:27:19.692Z,73.78
2022-09-09T08:28:19.672Z,73.88
2022-09-09T08:29:19.653Z,72.77
2022-09-09T08:30:19.670Z,71.87
2022-09-09T08:31:19.767Z,71.26
2022-09-09T08:32:19.639Z,70.96
2022-09-09T08:33:19.603Z,71.36
2022-09-09T08:34:19.592Z,70.36
2022-09-09T08:35:19.582Z,69.82
2022-09-09T08:36:19.572Z,69.62
2022-09-09T08:37:19.602Z,69.92
2022-09-09T08:38:19.541Z,70.43
2022-09-09T08:39:19.523Z,70.23
2022-09-09T08:40:19.622Z,69.72
2022-09-09T08:41:19.494Z,69.62
2022-09-09T08:42:19.543Z,69.62
2022-09-09T08:43:19.474Z,69.42
2022-09-09T08:44:19.505Z,69.52
2022-09-09T08:45:19.444Z,68.91
2022-09-09T08:46:19.517Z,68.51
2022-09-09T08:47:19.433Z,68.51
2022-09-09T08:48:19.405Z,69.42
2022-09-09T08:49:19.422Z,69.09
2022-09-09T08:50:19.384Z,69.18
2022-09-09T08:51:19.361Z,69.09
2022-09-09T08:52:19.374Z,68.68
2022-09-09T08:53:19.343Z,69.18
2022-09-09T08:54:35.651Z,69.09
2022-09-09T08:55:20.296Z,69.09
2022-09-09T08:56:19.316Z,68.68
2022-09-09T08:57:19.315Z,67.88
2022-09-09T08:58:19.272Z,67.68
2022-09-09T08:59:19.261Z,67.18
2022-09-09T09:00:19.281Z,67.38
2022-09-09T09:01:19.273Z,67.55
2022-09-09T09:02:19.237Z,67.14
2022-09-09T09:03:19.205Z,67.85
2022-09-09T09:04:19.252Z,68.72
2022-09-09T09:05:19.246Z,66.51
2022-09-09T09:06:19.207Z,66.00
2022-09-09T09:07:19.146Z,66.51
2022-09-09T09:08:19.165Z,66.00
2022-09-09T09:09:19.135Z,66.08
2022-09-09T09:10:40.125Z,65.07
2022-09-09T09:11:20.112Z,65.97
2022-09-09T09:12:19.118Z,66.28
2022-09-09T09:13:19.098Z,64.27
2022-09-09T09:14:19.121Z,64.87
2022-09-09T09:15:19.047Z,65.27
2022-09-09T09:16:19.087Z,65.47
2022-09-09T09:17:19.066Z,64.14
2022-09-09T09:18:19.015Z,63.13
2022-09-09T09:19:19.021Z,63.10
2022-09-09T09:20:18.988Z,62.80
2022-09-09T09:21:18.954Z,61.90
2022-09-09T09:22:18.998Z,62.10
2022-09-09T09:23:18.928Z,62.50
2022-09-09T09:24:21.479Z,61.40
2022-09-09T09:25:18.915Z,61.50
2022-09-09T09:26:18.906Z,62.40
2022-09-09T09:27:18.920Z,64.01
2022-09-09T09:28:18.885Z,61.70
2022-09-09T09:29:18.857Z,61.00
2022-09-09T09:30:25.646Z,60.22
2022-09-09T09:31:19.870Z,60.62
2022-09-09T09:32:18.840Z,60.72
2022-09-09T09:33:18.820Z,61.33
2022-09-09T09:34:18.808Z,61.02
2022-09-09T09:35:18.770Z,60.42
2022-09-09T09:36:18.767Z,59.82
2022-09-09T09:37:18.787Z,60.12
2022-09-09T09:40:19.722Z,60.80
2022-09-09T09:41:18.731Z,61.19
2022-09-09T09:42:21.593Z,62.27
2022-09-09T09:43:19.668Z,60.97
2022-09-09T09:44:18.660Z,60.36
2022-09-09T09:45:18.648Z,60.47
2022-09-09T09:46:18.798Z,60.06
2022-09-09T09:47:18.611Z,60.14
2022-09-09T09:48:18.639Z,61.24
2022-09-09T09:49:18.581Z,61.54
2022-09-09T09:50:18.588Z,60.84
2022-09-09T09:51:18.562Z,59.36
2022-09-09T09:52:18.548Z,59.77
2022-09-09T09:53:18.552Z,60.36
2022-09-09T09:54:18.524Z,59.46
2022-09-09T09:55:18.532Z,60.16
2022-09-09T09:56:18.522Z,60.80
2022-09-09T09:57:18.518Z,59.79
2022-09-09T09:58:18.871Z,60.39
2022-09-09T09:59:23.813Z,60.49
2022-09-09T10:00:19.474Z,60.49
2022-09-09T10:01:18.494Z,60.69
2022-09-09T10:02:18.421Z,62.40
2022-09-09T10:03:18.412Z,61.17
2022-09-09T10:04:18.450Z,61.17
2022-09-09T10:05:20.994Z,60.94
2022-09-09T10:06:18.354Z,60.33
2022-09-09T10:07:18.344Z,59.36
2022-09-09T10:08:18.355Z,59.96
2022-09-09T10:09:18.313Z,61.47
2022-09-09T10:10:18.324Z,61.17
2022-09-09T10:11:18.290Z,60.60
2022-09-09T10:12:18.306Z,59.99
2022-09-09T10:13:18.319Z,60.16
2022-09-09T10:14:18.245Z,61.97
2022-09-09T10:15:18.235Z,60.97
2022-09-09T10:16:18.278Z,59.64
2022-09-09T10:17:18.203Z,58.94
2022-09-09T10:18:18.224Z,59.64
2022-09-09T10:19:18.184Z,59.81
2022-09-09T10:20:18.204Z,59.50
2022-09-09T10:21:18.163Z,60.01
2022-09-09T10:22:18.138Z,58.58
2022-09-09T10:23:18.159Z,57.98
2022-09-09T10:24:18.129Z,57.78
2022-09-09T10:25:18.102Z,57.57
2022-09-09T10:26:18.107Z,57.95
2022-09-09T10:27:18.076Z,57.85
2022-09-09T10:28:18.076Z,56.95
2022-09-09T10:29:18.057Z,56.35
2022-09-09T10:30:18.038Z,56.74
2022-09-09T10:31:18.045Z,57.55
2022-09-09T10:32:18.007Z,57.45
2022-09-09T10:33:18.008Z,57.45
2022-09-09T10:34:17.987Z,57.45
2022-09-09T10:35:17.974Z,55.98
2022-09-09T10:36:17.957Z,55.77
2022-09-09T10:37:17.936Z,56.48
2022-09-09T10:38:17.964Z,56.77
2022-09-09T10:39:17.919Z,57.17
2022-09-09T10:40:17.977Z,56.57
2022-09-09T10:41:17.879Z,56.57
2022-09-09T10:42:17.877Z,56.37
2022-09-09T10:43:17.856Z,57.17
2022-09-09T10:44:17.888Z,57.48
2022-09-09T10:45:17.855Z,57.48
2022-09-09T10:46:17.918Z,58.55
2022-09-09T10:47:17.817Z,56.45
2022-09-09T10:48:17.816Z,56.45
2022-09-09T10:49:22.563Z,57.15
2022-09-09T10:50:18.759Z,55.72
2022-09-09T10:51:17.741Z,54.62
2022-09-09T10:52:17.748Z,54.02
2022-09-09T10:53:17.728Z,53.99
2022-09-09T10:54:17.746Z,53.69
2022-09-09T10:55:17.699Z,53.59
2022-09-09T10:56:17.681Z,52.89
2022-09-09T10:57:17.680Z,52.52
2022-09-09T10:58:17.721Z,53.12
2022-09-09T10:59:17.682Z,52.92
2022-09-09T11:00:17.642Z,53.22
2022-09-09T11:01:17.723Z,53.92
2022-09-09T11:02:17.609Z,53.02
2022-09-09T11:03:17.610Z,53.30
2022-09-09T11:04:17.691Z,53.19
2022-09-09T11:05:17.561Z,52.39
2022-09-09T11:06:17.623Z,52.99
2022-09-09T11:07:17.541Z,53.19
2022-09-09T11:08:17.568Z,53.39
2022-09-09T11:09:17.539Z,52.09
2022-09-09T11:10:17.491Z,52.19
2022-09-09T11:11:17.481Z,51.79
2022-09-09T11:12:17.507Z,52.59
2022-09-09T11:13:17.471Z,52.89
2022-09-09T11:14:17.472Z,52.42
2022-09-09T11:15:17.442Z,53.55
2022-09-09T11:16:17.468Z,53.42
2022-09-09T11:17:17.402Z,53.92
2022-09-09T11:18:17.404Z,52.72
2022-09-09T11:19:17.403Z,53.02
2022-09-09T11:20:17.371Z,52.74
2022-09-09T11:21:17.360Z,53.34
2022-09-09T11:22:17.461Z,53.12
2022-09-09T11:23:17.337Z,52.84
2022-09-09T11:24:17.622Z,52.64
2022-09-09T11:25:17.313Z,52.74
2022-09-09T11:26:17.285Z,52.44
2022-09-09T11:27:17.274Z,53.05
2022-09-09T11:28:17.383Z,53.94
2022-09-09T11:29:17.243Z,53.55
2022-09-09T11:30:27.522Z,52.92
2022-09-09T11:31:18.274Z,53.82
2022-09-09T11:32:17.318Z,53.12
2022-09-09T11:33:17.195Z,52.99
2022-09-09T11:34:17.195Z,51.69
2022-09-09T11:35:17.207Z,51.59
2022-09-09T11:36:17.165Z,52.47
2022-09-09T11:37:17.146Z,53.67
2022-09-09T11:38:17.136Z,52.47
2022-09-09T11:39:17.116Z,52.47
2022-09-09T11:40:17.125Z,52.67
2022-09-09T11:41:21.079Z,51.27
2022-09-09T11:42:17.120Z,51.57
2022-09-09T11:43:17.066Z,50.45
2022-09-09T11:44:17.065Z,50.95
2022-09-09T11:45:21.199Z,51.25
2022-09-09T11:46:17.085Z,51.32
2022-09-09T11:47:17.020Z,51.22
2022-09-09T11:48:16.996Z,50.99
2022-09-09T11:49:16.987Z,52.19
2022-09-09T11:50:17.030Z,51.37
2022-09-09T11:51:17.437Z,50.99
2022-09-09T11:52:17.103Z,50.10
2022-09-09T11:53:16.941Z,50.60
2022-09-09T11:54:17.107Z,50.12
2022-09-09T11:55:16.961Z,50.82
2022-09-09T11:56:16.972Z,50.82
2022-09-09T11:57:16.919Z,51.02
2022-09-09T11:58:16.909Z,51.70
2022-09-09T11:59:16.896Z,52.52
2022-09-09T12:00:16.887Z,52.12
2022-09-09T12:01:16.862Z,51.79
2022-09-09T12:02:16.979Z,50.62
2022-09-09T12:03:16.820Z,50.92
2022-09-09T12:04:21.868Z,51.02
2022-09-09T12:05:18.104Z,51.32
2022-09-09T12:06:16.802Z,52.32
2022-09-09T12:07:16.833Z,51.25
2022-09-09T12:08:16.835Z,51.04
2022-09-09T12:09:16.720Z,51.34
2022-09-09T12:10:16.727Z,51.94
2022-09-09T12:11:16.749Z,52.94
2022-09-09T12:12:16.792Z,53.24
2022-09-09T12:13:16.689Z,52.64
2022-09-09T12:14:16.762Z,51.75
2022-09-09T12:15:16.866Z,51.04
2022-09-09T12:16:16.698Z,51.17
2022-09-09T12:17:16.646Z,52.07
2022-09-09T12:18:16.625Z,52.17
2022-09-09T12:19:16.594Z,52.47
2022-09-09T12:20:16.606Z,52.39
2022-09-09T12:21:16.571Z,52.29
2022-09-09T12:22:16.543Z,52.22
2022-09-09T12:23:16.545Z,52.52
2022-09-09T12:24:16.544Z,53.12
2022-09-09T12:25:19.194Z,53.22
2022-09-09T12:26:17.499Z,53.39
2022-09-09T12:27:16.544Z,52.69
2022-09-09T12:28:16.465Z,52.37
2022-09-09T12:29:16.453Z,52.37
2022-09-09T12:30:16.475Z,53.04
2022-09-09T12:31:16.452Z,51.75
2022-09-09T12:32:16.423Z,51.54
2022-09-09T12:33:16.405Z,52.77
2022-09-09T12:34:16.394Z,52.37
2022-09-09T12:35:17.064Z,51.97
2022-09-09T12:36:16.356Z,52.80
2022-09-09T12:37:16.644Z,52.80
2022-09-09T12:38:16.342Z,53.32
2022-09-09T12:39:16.332Z,53.52
2022-09-09T12:40:16.504Z,53.72
2022-09-09T12:41:16.300Z,53.97
2022-09-09T12:42:16.285Z,53.34
2022-09-09T12:43:16.355Z,52.74
2022-09-09T12:44:16.256Z,52.82
2022-09-09T12:45:16.267Z,51.50
2022-09-09T12:46:16.295Z,50.60
2022-09-09T12:47:16.216Z,51.47
2022-09-09T12:48:16.207Z,50.97
2022-09-09T12:49:16.197Z,52.27
2022-09-09T12:50:16.216Z,51.59
2022-09-09T12:51:16.176Z,51.50
2022-09-09T12:52:16.152Z,52.69
2022-09-09T12:53:16.149Z,53.19
2022-09-09T12:54:16.118Z,52.99